Terminal Aerodrome Forecast
Issued by NWS Medford, OR

Home | Current Version | Previous Version | Text Only | Print | Product List | Glossary On
Versions: 1 2 3 4 5 6 7 8 9 10 11 12 13 14 15 16 17
000
FTUS46 KMFR 181720
TAFMFR
TAF
KMFR 181720Z 1818/1918 00000KT 2SM BR OVC004
     FM182000 VRB03KT P6SM SCT005 OVC060
     FM182200 15012G20KT P6SM OVC070
     FM190900 16008KT P6SM -RA OVC040
     FM191200 VRB03KT P6SM -RA OVC030=

USA.gov is the U.S. government's official web portal to all federal, state and local government web resources and services.